Time;durP1;ratioP1;P1;durP2;ratioP2;P2;SDS_P1;SDS_P2;PMS_P1;PMS_P2;Temp;Humidity;BMP_temperature;BMP_pressure;BME280_temperature;BME280_humidity;BME280_pressure;Samples;Min_cycle;Max_cycle;Signal;HPM_P1;HPM_P2
2021/06/22 00:01:10;;;;;;;9.02;6.57;;;18.80;96.60;;;;;;5051612;28;20116;-68
2021/06/22 00:03:35;;;;;;;7.28;6.47;;;18.80;96.70;;;;;;5048459;28;20047;-68
2021/06/22 00:06:01;;;;;;;7.35;6.20;;;18.80;96.70;;;;;;5029554;28;20052;-68
2021/06/22 00:08:26;;;;;;;8.95;6.40;;;18.80;96.80;;;;;;5031111;28;20116;-68
2021/06/22 00:10:52;;;;;;;8.77;7.32;;;18.80;96.90;;;;;;5045337;28;20025;-68
2021/06/22 00:13:18;;;;;;;7.25;6.38;;;18.80;96.90;;;;;;5033399;28;20039;-68
2021/06/22 00:15:44;;;;;;;6.75;6.05;;;18.80;96.90;;;;;;5050309;28;20013;-68
2021/06/22 00:18:10;;;;;;;7.03;5.82;;;18.80;96.90;;;;;;5050759;28;20025;-68
2021/06/22 00:20:35;;;;;;;7.95;5.50;;;18.90;96.90;;;;;;5050977;28;20025;-67
2021/06/22 00:23:01;;;;;;;6.55;5.63;;;18.80;96.80;;;;;;5033311;28;20025;-68
2021/06/22 00:25:27;;;;;;;8.20;5.50;;;18.80;96.90;;;;;;5049707;28;20477;-68
2021/06/22 00:27:54;;;;;;;9.95;5.55;;;18.80;96.90;;;;;;5050710;28;20039;-68
2021/06/22 00:30:20;;;;;;;8.93;6.15;;;18.80;96.70;;;;;;5032932;28;20393;-68
2021/06/22 00:32:47;;;;;;;8.05;6.40;;;18.80;96.80;;;;;;5050600;28;20033;-68
2021/06/22 00:35:13;;;;;;;9.00;5.45;;;18.70;96.80;;;;;;5033727;28;20021;-68
2021/06/22 00:37:41;;;;;;;7.22;5.60;;;18.70;96.80;;;;;;5033283;28;20021;-68
2021/06/22 00:40:08;;;;;;;11.05;6.78;;;18.70;96.70;;;;;;5050425;28;20021;-68
2021/06/22 00:42:34;;;;;;;8.40;6.60;;;18.70;96.80;;;;;;5031868;28;20026;-68
2021/06/22 00:45:01;;;;;;;10.35;6.50;;;18.60;96.80;;;;;;5029737;28;20074;-68
2021/06/22 00:47:28;;;;;;;10.00;5.93;;;18.60;96.80;;;;;;5030591;28;20033;-67
2021/06/22 00:49:56;;;;;;;8.70;6.65;;;18.60;96.80;;;;;;5030784;28;20473;-68
2021/06/22 00:52:24;;;;;;;7.68;6.45;;;18.50;96.80;;;;;;5034853;28;20618;-68
2021/06/22 00:54:50;;;;;;;8.70;6.45;;;18.50;96.80;;;;;;5031132;28;20025;-68
2021/06/22 00:57:17;;;;;;;12.15;6.78;;;18.50;96.80;;;;;;5049791;28;20063;-68
2021/06/22 00:59:42;;;;;;;7.65;6.85;;;18.50;96.90;;;;;;5050763;28;20025;-68
2021/06/22 01:02:08;;;;;;;7.38;6.30;;;18.40;96.90;;;;;;5032771;28;20039;-68
2021/06/22 01:04:35;;;;;;;7.05;5.97;;;18.40;96.90;;;;;;5038498;28;20026;-68
2021/06/22 01:07:02;;;;;;;11.32;6.00;;;18.40;96.90;;;;;;5014708;28;20458;-68
2021/06/22 01:09:28;;;;;;;11.10;6.03;;;18.40;96.80;;;;;;5049982;28;20033;-68
2021/06/22 01:11:55;;;;;;;9.75;6.70;;;18.30;96.80;;;;;;5032358;28;20025;-67
2021/06/22 01:14:20;;;;;;;8.63;6.35;;;18.20;96.80;;;;;;5049336;28;20021;-68
2021/06/22 01:16:46;;;;;;;6.10;5.38;;;18.20;96.90;;;;;;5032019;28;20036;-68
2021/06/22 01:19:13;;;;;;;7.20;6.32;;;18.20;96.80;;;;;;5032348;28;20044;-68
2021/06/22 01:21:39;;;;;;;6.50;5.90;;;18.10;96.80;;;;;;5050298;28;20025;-68
2021/06/22 01:24:09;;;;;;;9.93;6.50;;;18.10;97.00;;;;;;5049373;28;20063;-68
2021/06/22 01:26:37;;;;;;;7.22;5.55;;;18.20;97.00;;;;;;5050126;28;20107;-68
2021/06/22 01:29:04;;;;;;;6.90;6.20;;;18.10;97.00;;;;;;5050113;28;20023;-68
2021/06/22 01:31:30;;;;;;;6.60;6.00;;;18.10;97.00;;;;;;5049773;28;20021;-68
2021/06/22 01:33:56;;;;;;;8.45;6.45;;;18.10;97.00;;;;;;5043656;28;20040;-68
2021/06/22 01:36:22;;;;;;;9.25;6.53;;;18.00;97.00;;;;;;5012389;28;20421;-68
2021/06/22 01:38:48;;;;;;;10.02;6.57;;;18.00;97.10;;;;;;5042288;28;20100;-68
2021/06/22 01:41:14;;;;;;;6.72;6.00;;;18.00;97.00;;;;;;5031626;28;20067;-68
2021/06/22 01:43:40;;;;;;;9.55;6.57;;;18.00;97.10;;;;;;5049895;28;20072;-68
2021/06/22 01:46:05;;;;;;;6.97;6.20;;;18.00;97.20;;;;;;5048917;28;20025;-68
2021/06/22 01:48:31;;;;;;;7.85;6.03;;;17.90;97.20;;;;;;5049929;28;20017;-67
2021/06/22 01:50:57;;;;;;;8.43;6.07;;;18.00;97.30;;;;;;5049846;28;20021;-68
2021/06/22 01:53:24;;;;;;;10.00;6.68;;;18.00;97.40;;;;;;5049652;28;20025;-68
2021/06/22 01:55:51;;;;;;;8.38;6.45;;;18.00;97.40;;;;;;5048891;28;20027;-68
2021/06/22 01:58:19;;;;;;;7.03;6.22;;;18.00;97.40;;;;;;5049662;28;20202;-68
2021/06/22 02:00:47;;;;;;;8.68;7.63;;;18.00;97.50;;;;;;5049764;28;20025;-68
2021/06/22 02:03:18;;;;;;;10.20;6.93;;;18.00;97.40;;;;;;5049758;28;20513;-68
2021/06/22 02:05:44;;;;;;;8.48;6.35;;;18.00;97.40;;;;;;5010606;28;20033;-68
2021/06/22 02:08:10;;;;;;;11.52;6.72;;;18.00;97.40;;;;;;5012265;28;20432;-68
2021/06/22 02:10:36;;;;;;;11.85;5.78;;;18.00;97.30;;;;;;5033057;28;20021;-68
2021/06/22 02:13:02;;;;;;;13.07;5.97;;;17.90;97.30;;;;;;5034351;28;20054;-68
2021/06/22 02:15:29;;;;;;;11.95;7.22;;;17.90;97.20;;;;;;5034629;28;20397;-68
2021/06/22 02:17:54;;;;;;;30.10;7.22;;;17.80;97.10;;;;;;5053146;28;20028;-68
2021/06/22 02:20:20;;;;;;;19.23;7.18;;;17.70;97.10;;;;;;5053536;28;20021;-68
2021/06/22 02:22:47;;;;;;;20.13;7.15;;;17.70;97.10;;;;;;5053377;28;20082;-68
2021/06/22 02:25:13;;;;;;;77.28;7.60;;;17.50;97.00;;;;;;5052093;28;20021;-67
2021/06/22 02:27:39;;;;;;;9.05;6.88;;;17.50;97.10;;;;;;5052740;28;20546;-68
2021/06/22 02:30:08;;;;;;;157.98;9.45;;;17.50;97.40;;;;;;5035460;28;20056;-68
2021/06/22 02:32:34;;;;;;;175.52;9.15;;;17.50;97.60;;;;;;5035202;28;20025;-68
2021/06/22 02:35:00;;;;;;;121.85;6.78;;;17.50;97.60;;;;;;5037834;28;20037;-68
2021/06/22 02:37:25;;;;;;;5.57;5.03;;;17.50;97.40;;;;;;5033743;28;20493;-68
2021/06/22 02:39:51;;;;;;;11.27;6.18;;;17.40;97.40;;;;;;5052391;28;20021;-68
2021/06/22 02:42:17;;;;;;;17.15;6.65;;;17.40;97.60;;;;;;5034500;28;20031;-68
2021/06/22 02:44:43;;;;;;;11.77;5.90;;;17.40;97.70;;;;;;5014426;28;20021;-68
2021/06/22 02:47:09;;;;;;;9.27;5.80;;;17.40;97.80;;;;;;5032710;28;20025;-68
2021/06/22 02:49:35;;;;;;;7.57;6.60;;;17.40;97.80;;;;;;5032962;28;20022;-68
2021/06/22 02:52:01;;;;;;;7.50;6.80;;;17.40;97.80;;;;;;5032703;28;20029;-68
2021/06/22 02:54:27;;;;;;;9.65;7.00;;;17.40;97.90;;;;;;5031587;28;20393;-68
2021/06/22 02:56:52;;;;;;;17.05;8.13;;;17.40;97.90;;;;;;5042763;28;20035;-68
2021/06/22 02:59:18;;;;;;;8.98;7.60;;;17.40;98.00;;;;;;5052919;28;20157;-68
2021/06/22 03:01:44;;;;;;;7.93;7.03;;;17.40;98.00;;;;;;5052553;28;20033;-68
2021/06/22 03:06:37;;;;;;;7.60;6.60;;;17.40;97.90;;;;;;5038204;28;20071;-71
2021/06/22 03:09:04;;;;;;;7.07;6.07;;;17.40;97.90;;;;;;5039163;28;20029;-69
2021/06/22 03:11:30;;;;;;;6.55;5.72;;;17.30;98.00;;;;;;5023682;28;20041;-71
2021/06/22 03:13:55;;;;;;;7.30;5.72;;;17.40;98.10;;;;;;5019981;28;20073;-71
2021/06/22 03:16:21;;;;;;;5.72;5.10;;;17.30;98.00;;;;;;5019133;28;20064;-69
2021/06/22 03:18:47;;;;;;;6.85;5.50;;;17.30;98.00;;;;;;5018213;28;20046;-72
2021/06/22 03:21:14;;;;;;;8.13;6.22;;;17.30;98.00;;;;;;5000532;28;20080;-72
2021/06/22 03:23:39;;;;;;;9.02;6.55;;;17.30;98.10;;;;;;5000718;28;20022;-69
2021/06/22 03:26:05;;;;;;;7.72;6.28;;;17.30;97.90;;;;;;5032651;28;20087;-70
2021/06/22 03:28:30;;;;;;;9.70;5.72;;;17.20;97.80;;;;;;5037297;28;20034;-72
2021/06/22 03:30:56;;;;;;;8.32;6.43;;;17.20;97.80;;;;;;5019594;28;20030;-72
2021/06/22 03:33:21;;;;;;;8.18;6.07;;;17.20;98.20;;;;;;5036126;28;20025;-68
2021/06/22 03:35:47;;;;;;;11.63;6.15;;;17.20;97.90;;;;;;5015501;28;20026;-72
2021/06/22 03:38:12;;;;;;;8.30;5.88;;;17.10;97.90;;;;;;5022821;28;20025;-70
2021/06/22 03:40:38;;;;;;;7.88;5.82;;;17.10;98.00;;;;;;5034644;28;20029;-71
2021/06/22 03:43:05;;;;;;;6.28;5.47;;;17.10;98.00;;;;;;5035649;28;20040;-69
2021/06/22 03:45:31;;;;;;;8.25;6.05;;;17.20;98.10;;;;;;5034393;28;20026;-72
2021/06/22 03:47:56;;;;;;;9.00;5.97;;;17.20;98.20;;;;;;5033547;28;20025;-71
2021/06/22 03:50:22;;;;;;;9.85;5.55;;;17.20;98.20;;;;;;5035241;28;20029;-72
2021/06/22 03:52:48;;;;;;;9.23;6.15;;;17.30;98.30;;;;;;5034765;28;20049;-73
2021/06/22 03:55:26;;;;;;;7.28;6.20;;;17.30;98.40;;;;;;5033127;28;20025;-72
2021/06/22 03:57:54;;;;;;;9.77;6.55;;;17.40;98.40;;;;;;5033838;28;20474;-72
2021/06/22 04:00:20;;;;;;;6.90;5.60;;;17.40;98.20;;;;;;5031140;28;20394;-72
2021/06/22 04:02:47;;;;;;;8.25;5.60;;;17.40;98.40;;;;;;5027207;28;20813;-72
2021/06/22 04:05:13;;;;;;;7.85;5.80;;;17.50;98.30;;;;;;5025166;28;20034;-71
2021/06/22 04:07:39;;;;;;;7.60;5.93;;;17.50;98.30;;;;;;5033018;28;20025;-70
2021/06/22 04:10:05;;;;;;;14.02;6.20;;;17.50;98.30;;;;;;5032652;28;20034;-69
2021/06/22 04:12:32;;;;;;;7.80;6.00;;;17.50;98.20;;;;;;5015626;28;20036;-70
2021/06/22 04:14:57;;;;;;;11.07;8.40;;;17.50;98.10;;;;;;5032877;28;20473;-72
2021/06/22 04:17:23;;;;;;;9.90;7.15;;;17.50;98.10;;;;;;5033873;28;20075;-70
2021/06/22 04:19:49;;;;;;;10.30;7.15;;;17.50;98.20;;;;;;5033693;28;20053;-69
2021/06/22 04:22:14;;;;;;;12.63;7.05;;;17.50;98.20;;;;;;5016259;28;20025;-72
2021/06/22 04:24:40;;;;;;;11.80;8.05;;;17.50;98.30;;;;;;5031653;28;20026;-71
2021/06/22 04:27:06;;;;;;;9.75;7.28;;;17.50;98.30;;;;;;5033513;28;20021;-71
2021/06/22 04:29:32;;;;;;;10.55;8.13;;;17.50;98.30;;;;;;5033774;28;20641;-72
2021/06/22 04:31:57;;;;;;;13.60;8.90;;;17.60;98.30;;;;;;5032551;28;20071;-69
2021/06/22 04:34:23;;;;;;;10.05;8.57;;;17.60;98.30;;;;;;5022928;28;20041;-72
2021/06/22 04:36:49;;;;;;;13.73;8.65;;;17.60;98.20;;;;;;5013782;28;20100;-71
2021/06/22 04:39:14;;;;;;;11.15;8.35;;;17.60;98.30;;;;;;5011709;28;20474;-72
2021/06/22 04:41:40;;;;;;;12.32;8.63;;;17.60;98.30;;;;;;5032597;28;20037;-71
2021/06/22 04:44:06;;;;;;;17.27;9.77;;;17.60;98.30;;;;;;5023240;28;20022;-70
2021/06/22 04:46:31;;;;;;;11.43;8.80;;;17.70;98.40;;;;;;5012600;28;20030;-72
2021/06/22 04:48:57;;;;;;;12.48;8.88;;;17.70;98.40;;;;;;5019411;28;20389;-71
2021/06/22 04:51:23;;;;;;;11.88;8.63;;;17.80;98.50;;;;;;5016169;28;20164;-72
2021/06/22 04:53:48;;;;;;;13.50;9.30;;;17.80;98.50;;;;;;5013172;28;20022;-71
2021/06/22 04:56:14;;;;;;;11.30;8.60;;;17.90;98.70;;;;;;5012391;28;20018;-68
2021/06/22 04:58:40;;;;;;;9.00;7.32;;;18.00;98.70;;;;;;5015753;28;20109;-72
2021/06/22 05:01:06;;;;;;;8.85;7.60;;;18.10;98.70;;;;;;5018680;28;20021;-72
2021/06/22 05:03:35;;;;;;;10.60;7.05;;;18.10;98.70;;;;;;5032162;28;20366;-71
2021/06/22 05:06:01;;;;;;;8.90;6.35;;;18.20;98.70;;;;;;5030214;28;20041;-70
2021/06/22 05:08:27;;;;;;;7.15;5.22;;;18.30;98.70;;;;;;5031765;28;20025;-71
2021/06/22 05:10:53;;;;;;;11.55;6.60;;;18.30;98.70;;;;;;5031219;28;20443;-69
2021/06/22 05:13:19;;;;;;;7.22;5.80;;;18.40;98.70;;;;;;5032098;28;20485;-72
2021/06/22 05:15:45;;;;;;;8.52;5.60;;;18.40;98.60;;;;;;5031369;28;20032;-71
2021/06/22 05:18:11;;;;;;;6.82;5.75;;;18.40;98.50;;;;;;5031773;28;20025;-70
2021/06/22 05:20:36;;;;;;;11.13;6.38;;;18.40;98.50;;;;;;5021916;28;20022;-72
2021/06/22 05:23:03;;;;;;;8.00;6.75;;;18.40;98.40;;;;;;5012129;28;20041;-72
2021/06/22 05:25:28;;;;;;;9.85;7.55;;;18.40;98.30;;;;;;5013181;28;20041;-72
2021/06/22 05:27:54;;;;;;;10.07;8.85;;;18.30;98.30;;;;;;5032519;28;20473;-72
2021/06/22 05:30:20;;;;;;;12.63;9.57;;;18.30;98.20;;;;;;5033162;28;20036;-71
2021/06/22 05:32:45;;;;;;;13.18;10.45;;;18.30;98.30;;;;;;5033209;28;20021;-69
2021/06/22 05:35:12;;;;;;;14.32;11.38;;;18.30;98.30;;;;;;5032434;28;20029;-72
2021/06/22 05:37:38;;;;;;;13.77;10.93;;;18.30;98.30;;;;;;5031218;28;20021;-72
2021/06/22 05:40:06;;;;;;;14.63;10.32;;;18.30;98.50;;;;;;5015944;28;20549;-72
2021/06/22 05:42:31;;;;;;;14.70;10.48;;;18.20;98.20;;;;;;5034097;28;20060;-69
2021/06/22 05:44:57;;;;;;;12.65;10.57;;;18.20;98.20;;;;;;5016808;28;20030;-71
2021/06/22 05:47:23;;;;;;;12.10;10.68;;;18.20;98.10;;;;;;5015389;28;20025;-72
2021/06/22 05:49:48;;;;;;;12.45;11.15;;;18.10;98.10;;;;;;5022808;28;20033;-72
2021/06/22 05:52:14;;;;;;;13.63;11.48;;;18.10;98.20;;;;;;5017801;28;20401;-69
2021/06/22 05:54:39;;;;;;;12.73;11.38;;;18.10;98.30;;;;;;5033549;28;20559;-72
2021/06/22 05:57:06;;;;;;;15.35;11.43;;;18.10;98.30;;;;;;5019084;28;20045;-72
2021/06/22 05:59:32;;;;;;;13.73;12.18;;;18.10;98.20;;;;;;5035900;28;20497;-72
2021/06/22 06:01:57;;;;;;;15.60;11.95;;;18.10;98.30;;;;;;5036119;28;20029;-72
2021/06/22 06:04:23;;;;;;;14.75;12.20;;;18.10;98.30;;;;;;5034639;28;20238;-72
2021/06/22 06:06:48;;;;;;;14.40;12.85;;;18.10;98.50;;;;;;5036228;28;20095;-71
2021/06/22 06:09:15;;;;;;;14.60;12.55;;;18.20;98.60;;;;;;5036706;28;20029;-72
2021/06/22 06:11:42;;;;;;;14.23;12.10;;;18.10;98.60;;;;;;5019820;28;20029;-70
2021/06/22 06:14:07;;;;;;;15.43;12.68;;;18.10;98.60;;;;;;5036542;28;20018;-72
2021/06/22 06:16:33;;;;;;;14.93;12.75;;;18.20;98.60;;;;;;5036758;28;20100;-71
2021/06/22 06:18:58;;;;;;;14.70;12.80;;;18.20;98.50;;;;;;5036472;28;20527;-72
2021/06/22 06:21:25;;;;;;;14.20;12.48;;;18.20;98.40;;;;;;5019767;28;20022;-72
2021/06/22 06:23:51;;;;;;;15.63;13.20;;;18.20;98.40;;;;;;5033822;28;20171;-71
2021/06/22 06:26:18;;;;;;;17.27;13.82;;;18.20;98.50;;;;;;5036470;28;20076;-71
2021/06/22 06:28:49;;;;;;;15.38;13.68;;;18.30;98.50;;;;;;5029493;28;20021;-72
2021/06/22 06:31:15;;;;;;;17.35;14.73;;;18.30;98.50;;;;;;5037821;28;20029;-72
2021/06/22 06:33:40;;;;;;;20.52;15.38;;;18.40;98.50;;;;;;5038040;28;20029;-72
2021/06/22 06:36:06;;;;;;;18.27;15.18;;;18.50;98.60;;;;;;5018195;28;20057;-72
2021/06/22 06:38:31;;;;;;;14.60;13.10;;;18.50;98.60;;;;;;5036738;28;20022;-71
2021/06/22 06:40:57;;;;;;;17.83;14.07;;;18.60;98.50;;;;;;5037394;28;20065;-72
2021/06/22 06:43:22;;;;;;;14.93;13.38;;;18.60;98.40;;;;;;5037900;28;20026;-71
2021/06/22 06:45:48;;;;;;;19.63;14.43;;;18.70;98.50;;;;;;5035877;28;20067;-72
2021/06/22 06:48:14;;;;;;;15.02;13.15;;;18.70;98.40;;;;;;5037348;28;20022;-71
2021/06/22 06:50:39;;;;;;;16.30;12.63;;;18.80;98.70;;;;;;5026128;28;20466;-72
2021/06/22 06:53:05;;;;;;;14.18;12.43;;;18.90;98.50;;;;;;5017402;28;20025;-72
2021/06/22 06:55:42;;;;;;;12.63;11.05;;;19.00;98.40;;;;;;5006686;28;20021;-72
2021/06/22 06:58:07;;;;;;;13.48;10.63;;;19.10;98.40;;;;;;5036767;28;20687;-72
2021/06/22 07:00:35;;;;;;;14.50;10.43;;;19.20;98.30;;;;;;5036279;28;20091;-72
2021/06/22 07:03:02;;;;;;;11.73;9.57;;;19.20;98.30;;;;;;5035962;28;20025;-72
2021/06/22 07:05:28;;;;;;;10.35;9.32;;;19.40;98.30;;;;;;5033045;28;20076;-73
2021/06/22 07:07:54;;;;;;;11.02;9.30;;;19.60;98.30;;;;;;5033626;28;20049;-72
2021/06/22 07:10:19;;;;;;;11.50;9.73;;;19.60;98.20;;;;;;5015807;28;20060;-72
2021/06/22 07:12:46;;;;;;;16.08;9.73;;;19.80;98.10;;;;;;5033728;28;20026;-72
2021/06/22 07:15:13;;;;;;;11.48;9.38;;;20.00;98.00;;;;;;5032904;28;20021;-72
2021/06/22 07:17:39;;;;;;;10.88;9.73;;;20.30;97.90;;;;;;5033800;28;20096;-69
2021/06/22 07:20:07;;;;;;;11.90;9.13;;;20.50;97.80;;;;;;5027664;28;20056;-69
2021/06/22 07:22:33;;;;;;;12.90;9.48;;;20.80;97.60;;;;;;5014344;28;20045;-69
2021/06/22 07:24:59;;;;;;;11.18;9.68;;;20.90;97.50;;;;;;5031803;28;20064;-73
2021/06/22 07:27:25;;;;;;;13.23;9.55;;;20.90;97.40;;;;;;5026487;28;20121;-72
2021/06/22 07:29:51;;;;;;;10.93;9.00;;;21.00;97.20;;;;;;5016697;28;20504;-72
2021/06/22 07:32:17;;;;;;;9.68;8.68;;;21.00;97.10;;;;;;5017228;28;20021;-69
2021/06/22 07:34:42;;;;;;;10.18;9.13;;;21.10;97.00;;;;;;5033858;28;20512;-72
2021/06/22 07:37:08;;;;;;;11.63;9.95;;;21.50;96.70;;;;;;5034452;28;20021;-72
2021/06/22 07:39:33;;;;;;;10.98;8.48;;;21.70;96.70;;;;;;5033935;28;20540;-71
2021/06/22 07:41:59;;;;;;;10.00;9.00;;;21.90;96.20;;;;;;5033071;28;20030;-72
2021/06/22 07:44:24;;;;;;;12.65;8.70;;;22.30;96.40;;;;;;5032157;28;20668;-73
2021/06/22 07:46:50;;;;;;;15.18;9.05;;;22.50;96.40;;;;;;5032481;28;20079;-73
2021/06/22 07:49:16;;;;;;;14.20;8.52;;;22.80;96.00;;;;;;5014830;28;20405;-71
2021/06/22 07:51:41;;;;;;;11.32;8.38;;;22.90;95.60;;;;;;5013481;28;20121;-69
2021/06/22 07:54:07;;;;;;;9.73;8.15;;;22.90;95.20;;;;;;4994364;28;20022;-73
2021/06/22 07:56:33;;;;;;;9.05;8.15;;;23.20;95.10;;;;;;5018542;28;20024;-73
2021/06/22 07:58:59;;;;;;;8.43;7.63;;;23.40;94.40;;;;;;5032740;28;20021;-72
2021/06/22 08:01:26;;;;;;;11.35;8.00;;;23.10;94.50;;;;;;5031943;28;20049;-72
2021/06/22 08:03:51;;;;;;;10.50;7.80;;;23.10;94.60;;;;;;5031853;28;20025;-72
2021/06/22 08:06:17;;;;;;;10.55;7.95;;;23.40;94.10;;;;;;5031929;28;20031;-72
2021/06/22 08:08:43;;;;;;;10.05;7.00;;;23.40;93.80;;;;;;5032390;28;20037;-72
2021/06/22 08:11:09;;;;;;;8.32;7.43;;;23.20;93.80;;;;;;5031754;28;20029;-70
2021/06/22 08:13:35;;;;;;;9.65;7.70;;;23.20;94.10;;;;;;5032801;28;20028;-72
2021/06/22 08:16:01;;;;;;;9.00;7.90;;;23.20;94.10;;;;;;5032181;28;20102;-70
2021/06/22 08:18:27;;;;;;;12.73;7.80;;;23.10;93.90;;;;;;5033066;28;20021;-72
2021/06/22 08:20:53;;;;;;;9.95;6.85;;;23.10;94.00;;;;;;5020851;28;20048;-72
2021/06/22 08:23:20;;;;;;;8.07;7.22;;;23.10;93.80;;;;;;5013942;28;20049;-72
2021/06/22 08:25:47;;;;;;;12.05;7.50;;;23.20;93.60;;;;;;5023192;28;20031;-72
2021/06/22 08:28:12;;;;;;;7.60;6.78;;;23.20;93.60;;;;;;5025116;28;20021;-69
2021/06/22 08:30:39;;;;;;;12.45;7.78;;;23.30;93.70;;;;;;5034893;28;20497;-72
2021/06/22 08:33:06;;;;;;;11.15;7.78;;;23.40;93.40;;;;;;5034791;28;20114;-70
2021/06/22 08:35:35;;;;;;;8.38;7.55;;;23.40;93.30;;;;;;5033720;28;20035;-72
2021/06/22 08:38:01;;;;;;;7.97;6.60;;;23.40;93.20;;;;;;5031456;28;20577;-71
2021/06/22 08:40:27;;;;;;;7.05;6.32;;;23.40;93.30;;;;;;5030996;28;20449;-71
2021/06/22 08:42:53;;;;;;;7.95;5.75;;;23.50;93.00;;;;;;5031195;28;20101;-71
2021/06/22 08:45:19;;;;;;;8.30;5.38;;;23.60;92.90;;;;;;5030362;28;20033;-71
2021/06/22 08:47:45;;;;;;;6.70;4.25;;;23.80;92.40;;;;;;5030911;28;20025;-71
2021/06/22 08:50:12;;;;;;;4.97;3.70;;;24.70;91.60;;;;;;5024066;28;20665;-71
2021/06/22 08:52:38;;;;;;;4.72;4.15;;;25.20;91.00;;;;;;5010857;28;20026;-71
2021/06/22 08:55:07;;;;;;;4.38;3.97;;;25.30;90.50;;;;;;4992523;28;20049;-71
2021/06/22 08:57:34;;;;;;;6.22;4.80;;;25.30;90.00;;;;;;5020764;28;20104;-71
2021/06/22 09:00:00;;;;;;;6.15;5.03;;;25.00;90.30;;;;;;5011526;28;20371;-71
2021/06/22 09:02:27;;;;;;;6.25;5.28;;;24.90;90.40;;;;;;5010990;28;20033;-71
2021/06/22 09:04:54;;;;;;;5.75;5.03;;;24.80;90.40;;;;;;5057120;22;20068;-90
2021/06/22 09:07:42;;;;;;;7.10;5.05;;;24.50;90.30;;;;;;5050499;28;20013;-90
2021/06/22 09:10:08;;;;;;;5.22;4.72;;;24.40;90.40;;;;;;5044517;28;20021;-90
2021/06/22 09:12:35;;;;;;;5.03;4.53;;;24.30;90.60;;;;;;5031765;28;20025;-90
2021/06/22 09:15:01;;;;;;;5.40;4.90;;;24.20;90.30;;;;;;5030966;28;20040;-90
2021/06/22 09:17:34;;;;;;;6.43;4.32;;;24.60;89.70;;;;;;5031188;28;20025;-89
2021/06/22 09:20:00;;;;;;;5.60;4.00;;;24.80;87.80;;;;;;5036761;28;20109;-90
2021/06/22 09:22:27;;;;;;;6.70;3.78;;;25.60;86.40;;;;;;5042179;28;20044;-91
2021/06/22 09:25:00;;;;;;;5.50;4.50;;;25.80;85.80;;;;;;5056843;28;20025;-90
2021/06/22 09:27:46;;;;;;;3.88;3.42;;;26.00;85.00;;;;;;5052384;28;20025;-89
2021/06/22 09:30:12;;;;;;;5.32;3.70;;;26.00;85.60;;;;;;5049582;28;20366;-90
2021/06/22 09:32:38;;;;;;;3.88;3.50;;;25.70;85.80;;;;;;5058077;28;20055;-90
2021/06/22 09:35:25;;;;;;;4.50;3.72;;;25.40;85.30;;;;;;5056270;28;20020;-90
2021/06/22 09:37:53;;;;;;;3.55;2.78;;;25.10;85.00;;;;;;5050281;28;20024;-88
2021/06/22 09:40:29;;;;;;;4.28;3.47;;;24.90;85.40;;;;;;5057308;28;20112;-89
2021/06/22 09:42:57;;;;;;;3.97;3.65;;;24.70;84.90;;;;;;5058100;28;20652;-90
2021/06/22 09:45:23;;;;;;;5.72;3.30;;;24.50;85.20;;;;;;5056442;28;20029;-90
2021/06/22 09:47:50;;;;;;;3.50;3.20;;;24.30;85.70;;;;;;5057562;28;20108;-90
2021/06/22 09:50:54;;;;;;;5.80;3.22;;;24.20;85.80;;;;;;5058155;28;20115;-89
2021/06/22 09:53:24;;;;;;;3.83;2.85;;;24.00;85.80;;;;;;4973667;28;20046;-90
2021/06/22 09:55:49;;;;;;;2.65;2.22;;;23.90;85.80;;;;;;4958006;29;20392;-89
2021/06/22 09:58:16;;;;;;;5.47;2.42;;;23.80;86.10;;;;;;4987613;28;20064;-89
2021/06/22 10:00:41;;;;;;;3.08;2.78;;;23.70;86.00;;;;;;5042286;28;20949;-89
2021/06/22 10:03:07;;;;;;;3.05;2.75;;;23.70;86.00;;;;;;5055350;28;20107;-90
2021/06/22 10:05:54;;;;;;;78.68;60.25;;;23.60;86.50;;;;;;5047551;28;20029;-90
2021/06/22 10:08:20;;;;;;;4.60;4.13;;;23.60;86.90;;;;;;5055799;28;20492;-90
2021/06/22 10:10:46;;;;;;;5.28;3.45;;;23.60;87.30;;;;;;5048929;28;20087;-90
2021/06/22 10:13:43;;;;;;;3.55;2.90;;;23.60;87.20;;;;;;5058965;28;20021;-91
2021/06/22 10:16:23;;;;;;;4.18;3.30;;;23.60;86.80;;;;;;5058297;28;20439;-90
2021/06/22 10:18:50;;;;;;;7.25;2.63;;;23.60;86.60;;;;;;5038663;28;20171;-90
2021/06/22 10:21:17;;;;;;;4.72;3.20;;;23.60;87.00;;;;;;5038174;28;20333;-90
2021/06/22 10:23:42;;;;;;;6.93;3.67;;;23.50;86.60;;;;;;5038412;28;20060;-90
2021/06/22 10:26:09;;;;;;;4.88;3.90;;;23.50;86.80;;;;;;5037939;28;20026;-90
2021/06/22 10:28:35;;;;;;;8.93;5.07;;;23.50;87.00;;;;;;5048758;28;20031;-89
2021/06/22 10:31:00;;;;;;;6.28;5.07;;;23.40;87.10;;;;;;5047085;28;20116;-90
2021/06/22 10:33:26;;;;;;;6.90;4.88;;;23.40;87.50;;;;;;5037437;28;20492;-90
2021/06/22 10:35:52;;;;;;;6.38;5.78;;;23.40;87.30;;;;;;5045137;28;20021;-91
2021/06/22 10:38:22;;;;;;;8.38;5.97;;;23.40;87.40;;;;;;5054330;28;20104;-90
2021/06/22 10:40:54;;;;;;;6.43;5.28;;;23.30;87.50;;;;;;5054964;28;20093;-90
2021/06/22 10:43:37;;;;;;;9.93;6.10;;;23.30;87.30;;;;;;5054543;28;20025;-91
2021/06/22 10:46:07;;;;;;;7.15;6.15;;;23.20;87.20;;;;;;5053594;28;20036;-89
2021/06/22 10:48:46;;;;;;;7.35;5.68;;;23.20;87.20;;;;;;5054310;28;20044;-90
2021/06/22 10:51:31;;;;;;;8.82;5.65;;;23.20;87.10;;;;;;5054373;28;20020;-90
2021/06/22 10:53:58;;;;;;;8.38;5.85;;;23.20;87.50;;;;;;5052929;28;20478;-89
2021/06/22 10:56:29;;;;;;;6.10;5.18;;;23.20;88.10;;;;;;5054116;28;20024;-90
2021/06/22 10:59:14;;;;;;;4.95;4.40;;;23.20;88.10;;;;;;5053286;28;20291;-90
2021/06/22 11:01:52;;;;;;;4.70;4.30;;;23.20;87.40;;;;;;5043134;28;20030;-90
2021/06/22 11:04:18;;;;;;;5.90;4.38;;;23.20;87.70;;;;;;5040141;28;20033;-89
2021/06/22 11:07:00;;;;;;;4.70;4.28;;;23.20;87.80;;;;;;5045577;28;20017;-90
2021/06/22 11:09:26;;;;;;;5.57;4.55;;;23.30;87.30;;;;;;5054032;28;20036;-89
2021/06/22 11:12:20;;;;;;;7.50;4.40;;;23.30;87.70;;;;;;5054620;28;20021;-89
2021/06/22 11:14:58;;;;;;;5.78;4.35;;;23.30;87.60;;;;;;5054500;28;20103;-90
2021/06/22 11:17:42;;;;;;;4.38;3.95;;;23.30;87.60;;;;;;5054628;28;20027;-89
2021/06/22 11:20:16;;;;;;;6.43;5.78;;;23.30;87.70;;;;;;5054216;28;20029;-90
2021/06/22 11:23:02;;;;;;;6.28;5.63;;;23.30;87.60;;;;;;5055011;28;20027;-90
2021/06/22 11:25:46;;;;;;;6.47;5.72;;;23.20;87.90;;;;;;5052190;28;20074;-89
2021/06/22 11:28:12;;;;;;;7.07;6.32;;;23.10;88.00;;;;;;5047115;28;20045;-91
2021/06/22 11:31:00;;;;;;;9.63;6.20;;;22.90;88.00;;;;;;5044514;28;20386;-89
2021/06/22 11:33:29;;;;;;;4.90;3.70;;;22.70;88.20;;;;;;5045731;28;20025;-90
2021/06/22 11:36:16;;;;;;;8.43;3.90;;;22.60;88.80;;;;;;5049777;28;20031;-89
2021/06/22 11:38:43;;;;;;;5.50;4.00;;;22.40;88.20;;;;;;5034210;28;20057;-90
2021/06/22 11:41:14;;;;;;;5.22;3.13;;;22.20;88.80;;;;;;5033360;28;20116;-89
2021/06/22 11:44:07;;;;;;;3.22;2.92;;;22.10;89.10;;;;;;5033590;28;20366;-89
2021/06/22 11:46:34;;;;;;;3.83;3.35;;;22.00;89.80;;;;;;5033908;28;20026;-90
2021/06/22 11:49:01;;;;;;;3.83;3.53;;;22.00;89.60;;;;;;5049358;28;20029;-90
2021/06/22 11:51:51;;;;;;;15.48;12.75;;;21.80;89.40;;;;;;5053367;28;20033;-89
2021/06/22 11:55:00;;;;;;;4.40;3.88;;;21.70;90.10;;;;;;5052936;28;20021;-89
2021/06/22 11:57:28;;;;;;;5.07;4.53;;;21.70;90.10;;;;;;5052832;28;20037;-90
2021/06/22 11:59:56;;;;;;;4.43;4.00;;;21.60;90.00;;;;;;5053144;28;20055;-89
2021/06/22 12:02:22;;;;;;;4.82;4.10;;;21.60;90.30;;;;;;5045034;28;20397;-90
2021/06/22 12:04:49;;;;;;;7.15;4.60;;;21.70;90.50;;;;;;5040124;28;20029;-90
2021/06/22 12:07:16;;;;;;;4.68;4.28;;;21.90;90.60;;;;;;5041585;28;20116;-90
2021/06/22 12:09:46;;;;;;;5.40;4.90;;;22.10;90.60;;;;;;5051963;28;20040;-91
2021/06/22 12:12:12;;;;;;;6.50;5.88;;;22.40;90.50;;;;;;5053641;28;20488;-89
2021/06/22 12:14:52;;;;;;;7.15;6.47;;;22.50;90.10;;;;;;5054559;28;20353;-90
2021/06/22 12:17:19;;;;;;;8.30;6.78;;;22.70;89.80;;;;;;5053882;28;20443;-89
2021/06/22 12:19:46;;;;;;;9.07;7.78;;;22.70;90.00;;;;;;5052687;28;20031;-87
2021/06/22 12:22:14;;;;;;;9.20;6.85;;;22.80;90.00;;;;;;5054181;28;20112;-88
2021/06/22 12:24:44;;;;;;;7.53;6.53;;;22.90;89.80;;;;;;5051648;28;20025;-91
2021/06/22 12:27:10;;;;;;;8.07;7.28;;;22.90;89.40;;;;;;5053710;28;20021;-89
2021/06/22 12:29:39;;;;;;;8.55;7.72;;;22.90;89.70;;;;;;5052711;28;20217;-89
2021/06/22 12:32:07;;;;;;;6.07;5.47;;;22.90;89.60;;;;;;5044268;28;20475;-90
2021/06/22 12:34:36;;;;;;;8.20;5.65;;;22.90;89.10;;;;;;5052054;28;20029;-90
2021/06/22 12:37:03;;;;;;;7.75;4.85;;;22.90;88.40;;;;;;5043499;28;20420;-89
2021/06/22 12:39:47;;;;;;;6.68;4.95;;;22.80;87.80;;;;;;5052096;28;20108;-90
2021/06/22 12:42:19;;;;;;;5.30;4.43;;;22.80;87.40;;;;;;5053076;28;20029;-90
2021/06/22 12:44:45;;;;;;;8.40;5.50;;;22.70;88.10;;;;;;5051429;28;20033;-89
2021/06/22 12:47:11;;;;;;;6.18;4.72;;;22.60;88.70;;;;;;5052392;28;20024;-90